createdAt,value
2023-02-24T00:01:25.156Z,15.262500000000001
2023-02-24T00:04:18.260Z,13.787499999999998
2023-02-24T00:07:17.684Z,13.5
2023-02-24T00:11:18.325Z,14.35
2023-02-24T00:14:16.617Z,14.7875
2023-02-24T00:17:16.815Z,13.462499999999999
2023-02-24T00:21:16.562Z,16.15
2023-02-24T00:24:17.903Z,13.1375
2023-02-24T00:27:16.571Z,13.5
2023-02-24T00:31:18.610Z,15.487499999999999
2023-02-24T00:34:16.937Z,15.55
2023-02-24T00:37:16.932Z,14.762500000000001
2023-02-24T00:41:18.486Z,16.5
2023-02-24T00:44:16.798Z,14.1625
2023-02-24T00:47:16.601Z,15.587499999999999
2023-02-24T00:51:21.512Z,16.4375
2023-02-24T00:54:16.579Z,15.3875
2023-02-24T00:57:18.037Z,15.537500000000001
2023-02-24T01:01:19.839Z,16.6125
2023-02-24T01:04:18.094Z,15.325000000000001
2023-02-24T01:07:17.134Z,14.725000000000001
2023-02-24T01:21:17.229Z,16.1625
2023-02-24T01:24:16.472Z,16.65
2023-02-24T01:27:18.707Z,15.9
2023-02-24T01:31:19.816Z,16.6125
2023-02-24T01:34:18.153Z,15.262500000000001
2023-02-24T01:37:16.867Z,17.0875
2023-02-24T01:41:20.212Z,17.25
2023-02-24T01:45:25.360Z,15.95
2023-02-24T01:47:18.949Z,15.875
2023-02-24T01:51:16.525Z,15.387500000000001
2023-02-24T01:54:20.516Z,15.0625
2023-02-24T01:57:20.074Z,14.975
2023-02-24T02:01:17.780Z,17.4375
2023-02-24T02:04:25.610Z,14.1625
2023-02-24T02:07:20.721Z,15.712499999999999
2023-02-24T02:11:23.170Z,15.7
2023-02-24T02:14:18.617Z,17.012500000000003
2023-02-24T02:17:22.895Z,15.674999999999999
2023-02-24T02:21:44.421Z,17.7375
2023-02-24T02:24:32.376Z,14.75
2023-02-24T02:27:48.037Z,13.5
2023-02-24T02:31:47.817Z,16.674999999999997
2023-02-24T02:34:28.417Z,15.225
2023-02-24T02:37:25.743Z,16.2875
2023-02-24T02:41:23.993Z,16.4
2023-02-24T02:44:23.061Z,15.0625
2023-02-24T02:47:25.383Z,14.787500000000001
2023-02-24T02:51:21.177Z,19.6875
2023-02-24T02:54:24.282Z,15.725
2023-02-24T02:57:20.840Z,15.912500000000001
2023-02-24T03:01:18.824Z,17.4375
2023-02-24T03:04:21.390Z,14.6
2023-02-24T03:07:20.232Z,14.425
2023-02-24T03:11:19.725Z,17.487499999999997
2023-02-24T03:14:21.426Z,14.9375
2023-02-24T03:17:21.922Z,15.2375
2023-02-24T03:21:21.105Z,17.4125
2023-02-24T03:24:16.745Z,15.362499999999999
2023-02-24T03:27:22.865Z,15.6125
2023-02-24T03:31:25.162Z,15.675
2023-02-24T03:34:21.023Z,13.299999999999999
2023-02-24T03:37:17.167Z,13.8625
2023-02-24T03:41:17.511Z,17.2875
2023-02-24T03:44:17.131Z,14.225
2023-02-24T03:47:17.771Z,14.5625
2023-02-24T03:51:19.929Z,15.212500000000002
2023-02-24T03:54:33.614Z,15.749999999999998
2023-02-24T03:57:27.725Z,15.7375
2023-02-24T04:01:28.489Z,15.7
2023-02-24T04:04:20.568Z,16.1875
2023-02-24T04:07:26.859Z,15.637500000000001
2023-02-24T04:11:24.800Z,17.0375
2023-02-24T04:14:25.462Z,14.425
2023-02-24T04:17:23.328Z,15.0875
2023-02-24T04:21:19.182Z,15.675
2023-02-24T04:24:28.045Z,14.1125
2023-02-24T04:27:17.813Z,17.950000000000003
2023-02-24T04:31:21.967Z,16.4875
2023-02-24T04:34:20.436Z,15.975000000000001
2023-02-24T04:37:17.453Z,16.225
2023-02-24T04:41:21.599Z,20.2
2023-02-24T04:44:20.164Z,17.525
2023-02-24T04:47:16.701Z,18.1875
2023-02-24T04:51:16.739Z,16.6375
2023-02-24T04:54:19.671Z,14.537499999999998
2023-02-24T04:57:17.054Z,15.3625
2023-02-24T05:01:16.169Z,18.4625
2023-02-24T05:04:17.439Z,14.9375
2023-02-24T05:07:16.853Z,15.15
2023-02-24T05:11:17.620Z,17.15
2023-02-24T05:14:18.668Z,17.4125
2023-02-24T05:17:16.975Z,17.224999999999998
2023-02-24T05:21:48.624Z,16.3875
2023-02-24T05:24:17.462Z,14.825
2023-02-24T05:27:17.386Z,14.95
2023-02-24T05:31:18.347Z,16.8625
2023-02-24T05:34:17.334Z,13.1625
2023-02-24T05:37:16.880Z,17
2023-02-24T05:41:18.843Z,17.775
2023-02-24T05:44:18.702Z,16.625
2023-02-24T05:47:19.646Z,14.7625
2023-02-24T05:51:17.153Z,18
2023-02-24T05:54:17.743Z,17.275
2023-02-24T05:57:18.932Z,16.75
2023-02-24T06:01:17.708Z,17.25
2023-02-24T06:04:21.186Z,15.950000000000001
2023-02-24T06:07:20.656Z,14.787500000000001
2023-02-24T06:11:17.974Z,18.4375
2023-02-24T06:14:16.362Z,16.6
2023-02-24T06:17:17.882Z,15.9875
2023-02-24T06:21:17.175Z,16.5625
2023-02-24T06:24:18.395Z,14.6375
2023-02-24T06:27:19.692Z,17.6
2023-02-24T06:31:15.783Z,19.25
2023-02-24T06:34:18.215Z,18.2375
2023-02-24T06:37:16.112Z,17.7125
2023-02-24T06:41:16.522Z,19.375
2023-02-24T06:44:17.058Z,16.55
2023-02-24T06:47:18.203Z,16.2125
2023-02-24T06:51:16.103Z,19.2875
2023-02-24T06:54:16.523Z,16.85
2023-02-24T06:57:16.418Z,17.35
2023-02-24T07:01:17.420Z,20.0625
2023-02-24T07:04:21.030Z,17.175
2023-02-24T07:07:17.680Z,16.725
2023-02-24T07:11:19.942Z,18.5375
2023-02-24T07:14:17.953Z,17.9875
2023-02-24T07:17:18.964Z,18.2625
2023-02-24T07:21:16.904Z,20.037499999999998
2023-02-24T07:24:26.398Z,18.3125
2023-02-24T07:27:22.808Z,16.4125
2023-02-24T07:31:19.222Z,20.05
2023-02-24T07:34:24.667Z,18.0375
2023-02-24T07:37:17.010Z,18.0125
2023-02-24T07:41:21.539Z,19.1875
2023-02-24T07:44:17.377Z,16.875
2023-02-24T07:47:16.408Z,17.8125
2023-02-24T07:51:18.983Z,19.162499999999998
2023-02-24T07:54:16.487Z,18.5875
2023-02-24T07:57:19.011Z,20.1125
2023-02-24T08:01:19.514Z,21.0625
2023-02-24T08:04:20.114Z,20.762500000000003
2023-02-24T08:07:17.041Z,19.6875
2023-02-24T08:11:15.931Z,22.8375
2023-02-24T08:14:16.287Z,19.4125
2023-02-24T08:17:21.409Z,19.0375
2023-02-24T08:21:17.226Z,22.225
2023-02-24T08:24:20.416Z,19.612499999999997
2023-02-24T08:27:22.079Z,20.575
2023-02-24T08:31:18.796Z,21.5125
2023-02-24T08:34:16.495Z,19.6875
2023-02-24T08:37:16.568Z,22.0875
2023-02-24T08:41:20.366Z,24.012500000000003
2023-02-24T08:44:18.940Z,21.3125
2023-02-24T08:47:21.172Z,19.7875
2023-02-24T08:51:20.446Z,19.775
2023-02-24T08:54:19.857Z,17.375
2023-02-24T08:57:18.367Z,18.887500000000003
2023-02-24T09:01:22.665Z,20.8
2023-02-24T09:04:19.803Z,19.7625
2023-02-24T09:07:20.228Z,20.0125
2023-02-24T09:11:16.718Z,21.1875
2023-02-24T09:14:26.505Z,19.8625
2023-02-24T09:17:23.178Z,18.9625
2023-02-24T09:21:44.448Z,21.4
2023-02-24T09:24:27.155Z,18.3875
2023-02-24T09:27:17.747Z,18.725
2023-02-24T09:31:17.290Z,18.612499999999997
2023-02-24T09:34:18.830Z,18.6
2023-02-24T09:37:25.334Z,19.0625
2023-02-24T09:41:34.325Z,19.237499999999997
2023-02-24T09:44:26.121Z,17.275
2023-02-24T09:47:25.004Z,18.2875
2023-02-24T09:51:22.695Z,21.275
2023-02-24T09:54:19.936Z,19.5375
2023-02-24T09:57:23.322Z,19.0625
2023-02-24T10:01:32.315Z,21.85
2023-02-24T10:05:07.821Z,21.4375
2023-02-24T10:07:19.280Z,20.4
2023-02-24T10:11:17.223Z,22.4625
2023-02-24T10:14:37.910Z,20.775
2023-02-24T10:17:27.424Z,19.662499999999998
2023-02-24T10:21:23.555Z,21.575000000000003
2023-02-24T10:24:25.402Z,21.6
2023-02-24T10:27:21.786Z,20.4375
2023-02-24T10:31:31.475Z,22.85
2023-02-24T10:34:21.528Z,24.4375
2023-02-24T10:37:27.999Z,24.1625
2023-02-24T10:41:16.656Z,23.3375
2023-02-24T10:44:21.210Z,22.4625
2023-02-24T10:47:19.515Z,22.6625
2023-02-24T10:51:23.223Z,23.049999999999997
2023-02-24T10:54:35.914Z,20.075
2023-02-24T10:57:21.572Z,21.2875
2023-02-24T11:01:25.611Z,24.35
2023-02-24T11:04:36.879Z,21.525
2023-02-24T11:07:25.186Z,21.787499999999998
2023-02-24T11:11:33.205Z,24.825
2023-02-24T11:21:17.083Z,24.262500000000003
2023-02-24T11:24:18.560Z,20.675
2023-02-24T11:27:21.759Z,22.875
2023-02-24T11:31:30.243Z,22.6875
2023-02-24T11:34:21.301Z,21.0625
2023-02-24T11:37:32.184Z,20.4125
2023-02-24T11:41:22.574Z,22.325000000000003
2023-02-24T11:44:22.821Z,21.0625
2023-02-24T11:47:23.212Z,20.9375
2023-02-24T11:51:21.568Z,22.3125
2023-02-24T11:54:17.889Z,19.2875
2023-02-24T11:57:22.961Z,19.5875
2023-02-24T12:01:22.404Z,20.362499999999997
2023-02-24T12:04:22.053Z,17.45
2023-02-24T12:07:23.996Z,17.8625
2023-02-24T12:11:23.769Z,18.3375
2023-02-24T12:14:25.538Z,17.5875
2023-02-24T12:17:25.338Z,18.3125
2023-02-24T12:31:32.587Z,18.55
2023-02-24T12:34:29.700Z,17.4625
2023-02-24T12:37:33.334Z,17.0625
2023-02-24T12:41:31.117Z,18.174999999999997
2023-02-24T12:44:29.096Z,16.175
2023-02-24T12:47:24.607Z,17.7625
2023-02-24T12:51:24.885Z,18.9875
2023-02-24T12:54:22.624Z,18.549999999999997
2023-02-24T12:57:27.811Z,18.362499999999997
2023-02-24T13:01:26.798Z,19.7
2023-02-24T13:04:28.910Z,19.0625
2023-02-24T13:07:35.075Z,18.325
2023-02-24T13:11:26.600Z,18.275
2023-02-24T13:14:26.410Z,16.2125
2023-02-24T13:17:21.235Z,16.637500000000003
2023-02-24T13:21:21.189Z,18.799999999999997
2023-02-24T13:24:20.460Z,17.4
2023-02-24T13:27:23.025Z,19.6
2023-02-24T13:31:17.051Z,19.3875
2023-02-24T13:34:42.467Z,18.650000000000002
2023-02-24T13:37:27.141Z,19.049999999999997
2023-02-24T13:41:32.811Z,17.7125
2023-02-24T13:44:25.205Z,16.8125
2023-02-24T13:47:38.864Z,18.475
2023-02-24T13:51:52.537Z,17.775
2023-02-24T13:54:30.455Z,17.275000000000002
2023-02-24T13:57:36.871Z,14.887500000000001
2023-02-24T14:01:19.215Z,18.4125
2023-02-24T14:04:20.749Z,16.9625
2023-02-24T14:07:22.474Z,16.1875
2023-02-24T14:11:17.734Z,18.375
2023-02-24T14:14:18.819Z,15.212499999999999
2023-02-24T14:17:22.334Z,15.8125
2023-02-24T14:21:21.184Z,18.4875
2023-02-24T14:24:18.199Z,15.05
2023-02-24T14:27:25.239Z,15.1875
2023-02-24T14:31:22.902Z,16.5875
2023-02-24T14:34:21.144Z,16.5625
2023-02-24T14:37:22.738Z,14.7875
2023-02-24T14:41:21.334Z,17.0625
2023-02-24T14:44:20.808Z,14.825
2023-02-24T14:47:19.252Z,15.1
2023-02-24T14:51:22.591Z,15.725
2023-02-24T14:54:22.521Z,14.274999999999999
2023-02-24T14:57:22.296Z,14.9375
2023-02-24T15:01:21.728Z,14.1875
2023-02-24T15:04:30.066Z,15.35
2023-02-24T15:07:20.794Z,12.3875
2023-02-24T15:11:21.666Z,15.1875
2023-02-24T15:14:22.334Z,14.575000000000001
2023-02-24T15:17:20.084Z,15.425
2023-02-24T15:21:21.928Z,15.4625
2023-02-24T15:24:19.728Z,14.174999999999999
2023-02-24T15:27:24.656Z,12.4875
2023-02-24T15:31:18.945Z,13.575
2023-02-24T15:34:20.290Z,12.85
2023-02-24T15:37:24.134Z,13.2875
2023-02-24T15:41:16.440Z,14.9375
2023-02-24T15:44:34.962Z,13.5
2023-02-24T15:47:21.961Z,12.212499999999999
2023-02-24T15:51:27.876Z,14.3125
2023-02-24T15:54:19.799Z,12.975000000000001
2023-02-24T15:57:18.576Z,13.075
2023-02-24T16:01:16.582Z,12.7375
2023-02-24T16:04:16.998Z,13.9375
2023-02-24T16:07:21.368Z,13.2
2023-02-24T16:11:21.011Z,14.1375
2023-02-24T16:14:17.834Z,12.7
2023-02-24T16:17:27.471Z,13.375
2023-02-24T16:21:17.121Z,37.587500000000006
2023-02-24T16:24:17.308Z,21.487499999999997
2023-02-24T16:27:19.538Z,15.05
2023-02-24T16:31:17.888Z,14.962499999999999
2023-02-24T16:34:17.488Z,13.037500000000001
2023-02-24T16:37:20.072Z,13.6125
2023-02-24T16:41:16.943Z,14.112499999999999
2023-02-24T16:44:17.031Z,15.837499999999999
2023-02-24T16:47:19.902Z,14.9375
2023-02-24T16:51:16.662Z,52.849999999999994
2023-02-24T16:54:16.786Z,22.0125
2023-02-24T16:57:17.162Z,19.2625
2023-02-24T17:01:20.198Z,25.9
2023-02-24T17:04:16.841Z,23.3
2023-02-24T17:07:18.005Z,18.2875
2023-02-24T17:11:19.764Z,18.2
2023-02-24T17:14:19.475Z,36.1125
2023-02-24T17:17:17.409Z,20.1625
2023-02-24T17:21:16.312Z,22.112499999999997
2023-02-24T17:24:19.145Z,24.300000000000004
2023-02-24T17:27:16.590Z,37.5125
2023-02-24T17:31:16.640Z,21.700000000000003
2023-02-24T17:34:17.074Z,28.512500000000003
2023-02-24T17:37:17.037Z,23.6875
2023-02-24T17:41:16.819Z,52.0625
2023-02-24T17:44:16.926Z,47.4625
2023-02-24T17:47:16.952Z,19.6
2023-02-24T17:51:19.253Z,17.5875
2023-02-24T17:54:17.863Z,15.2125
2023-02-24T17:57:17.754Z,15.9
2023-02-24T18:01:16.991Z,15.6125
2023-02-24T18:04:17.566Z,17.2875
2023-02-24T18:07:20.968Z,17.8875
2023-02-24T18:11:20.336Z,16.95
2023-02-24T18:14:22.898Z,16.0625
2023-02-24T18:17:22.084Z,18.0375
2023-02-24T18:21:18.173Z,20.625
2023-02-24T18:24:20.486Z,20.174999999999997
2023-02-24T18:27:17.930Z,16.474999999999998
2023-02-24T18:31:20.471Z,18.25
2023-02-24T18:34:18.543Z,19.2125
2023-02-24T18:37:18.580Z,18.6875
2023-02-24T18:41:22.418Z,23.4125
2023-02-24T18:44:18.637Z,26.150000000000002
2023-02-24T18:47:17.664Z,24.025
2023-02-24T18:51:21.325Z,20.675
2023-02-24T18:54:17.352Z,19.387500000000003
2023-02-24T18:57:17.294Z,23.4375
2023-02-24T19:01:19.000Z,25.549999999999997
2023-02-24T19:04:18.390Z,19.4
2023-02-24T19:07:17.381Z,14.162500000000001
2023-02-24T19:11:19.319Z,17.4
2023-02-24T19:14:17.586Z,22.45
2023-02-24T19:17:19.446Z,20.8
2023-02-24T19:21:17.659Z,20.975
2023-02-24T19:24:17.664Z,19.95
2023-02-24T19:27:17.716Z,19.9
2023-02-24T19:31:18.677Z,20.4375
2023-02-24T19:34:16.589Z,17.9625
2023-02-24T19:37:16.882Z,17.85
2023-02-24T19:41:17.158Z,21.4625
2023-02-24T19:44:17.290Z,22.025
2023-02-24T19:47:17.846Z,21.4625
2023-02-24T19:51:19.166Z,19.974999999999998
2023-02-24T19:54:17.571Z,18.675
2023-02-24T19:57:17.395Z,18.75
2023-02-24T20:01:16.759Z,17.025
2023-02-24T20:04:17.778Z,16.275
2023-02-24T20:07:17.804Z,16.1875
2023-02-24T20:11:16.244Z,18.825000000000003
2023-02-24T20:14:18.623Z,16.587500000000002
2023-02-24T20:17:18.325Z,17.05
2023-02-24T20:21:16.399Z,18.1875
2023-02-24T20:24:17.928Z,17.625
2023-02-24T20:27:17.374Z,16
2023-02-24T20:31:19.034Z,20.174999999999997
2023-02-24T20:34:17.733Z,18.25
2023-02-24T20:37:17.687Z,21.3375
2023-02-24T20:41:18.540Z,35.75
2023-02-24T20:44:17.255Z,24.125
2023-02-24T20:47:19.156Z,20.525
2023-02-24T20:51:16.916Z,25.6875
2023-02-24T20:54:17.491Z,23.55
2023-02-24T20:57:16.862Z,23
2023-02-24T21:01:18.949Z,23.075
2023-02-24T21:04:20.378Z,21.025
2023-02-24T21:07:18.299Z,22.887500000000003
2023-02-24T21:11:17.167Z,22.85
2023-02-24T21:14:17.578Z,19
2023-02-24T21:17:17.527Z,18.549999999999997
2023-02-24T21:21:17.407Z,19.700000000000003
2023-02-24T21:24:17.101Z,17.3625
2023-02-24T21:27:17.032Z,16.55
2023-02-24T21:31:18.303Z,19.5
2023-02-24T21:34:17.681Z,19.0625
2023-02-24T21:37:19.013Z,17.5375
2023-02-24T21:41:20.809Z,22.75
2023-02-24T21:44:17.579Z,20.1375
2023-02-24T21:47:17.788Z,20.75
2023-02-24T21:51:17.265Z,17.7125
2023-02-24T21:54:18.235Z,17.9375
2023-02-24T21:57:17.815Z,17.5375
2023-02-24T22:01:20.174Z,13.525
2023-02-24T22:04:18.001Z,11.3125
2023-02-24T22:07:17.044Z,11.462499999999999
2023-02-24T22:11:17.990Z,12.65
2023-02-24T22:14:17.142Z,16.1875
2023-02-24T22:17:16.992Z,17.65
2023-02-24T22:21:20.461Z,16.9125
2023-02-24T22:24:17.286Z,16.0625
2023-02-24T22:27:18.144Z,14.225000000000001
2023-02-24T22:31:19.287Z,19.125
2023-02-24T22:34:17.320Z,22.95
2023-02-24T22:37:17.115Z,21.9
2023-02-24T22:41:19.244Z,49.275000000000006
2023-02-24T22:44:19.892Z,34.5
2023-02-24T22:47:17.906Z,18.7125
2023-02-24T22:51:18.423Z,12.0125
2023-02-24T22:54:16.979Z,7.325
2023-02-24T22:57:17.687Z,5.6625
2023-02-24T23:01:20.863Z,7.5625
2023-02-24T23:04:18.912Z,5.6625
2023-02-24T23:07:16.790Z,4.6625000000000005
2023-02-24T23:11:19.060Z,3.85
2023-02-24T23:14:17.340Z,5.175000000000001
2023-02-24T23:17:17.023Z,5.2875
2023-02-24T23:21:18.978Z,4.612500000000001
2023-02-24T23:24:18.439Z,4.5875
2023-02-24T23:27:17.048Z,4.85
2023-02-24T23:31:18.613Z,5.7625
2023-02-24T23:34:17.620Z,4.1375
2023-02-24T23:37:17.468Z,5.4125
2023-02-24T23:41:17.162Z,4.9125000000000005
2023-02-24T23:44:17.384Z,6.125
2023-02-24T23:47:17.566Z,5.2375
2023-02-24T23:51:18.427Z,6.075
2023-02-24T23:54:18.614Z,6.675000000000001
2023-02-24T23:57:18.806Z,5.987500000000001
